Time;durP1;ratioP1;P1;durP2;ratioP2;P2;SDS_P1;SDS_P2;PMS_P1;PMS_P2;Temp;Humidity;BMP_temperature;BMP_pressure;BME280_temperature;BME280_humidity;BME280_pressure;Samples;Min_cycle;Max_cycle;Signal;HPM_P1;HPM_P2
2023/07/23 00:00:15;;;;;;;18.38;10.93;;;;;;;-144.30;52.81;83262.03;5032540;28;20201;-48
2023/07/23 00:02:42;;;;;;;22.55;10.32;;;;;;;-144.30;53.19;83226.28;5032839;28;20721;-47
2023/07/23 00:05:09;;;;;;;14.50;9.00;;;;;;;-144.30;53.25;83242.19;5032638;28;20327;-52
2023/07/23 00:07:36;;;;;;;22.58;10.77;;;;;;;-144.30;53.23;83208.41;5032093;28;20255;-53
2023/07/23 00:10:05;;;;;;;18.08;10.75;;;;;;;-144.30;53.62;83216.34;5032083;28;20201;-52
2023/07/23 00:12:32;;;;;;;21.42;9.90;;;;;;;-144.30;54.20;83299.78;5032341;28;20284;-53
2023/07/23 00:14:59;;;;;;;16.90;10.18;;;;;;;-144.30;54.28;83279.94;5032332;28;20201;-47
2023/07/23 00:17:26;;;;;;;27.23;10.43;;;;;;;-144.30;54.26;83271.97;5032222;28;20252;-48
2023/07/23 00:19:53;;;;;;;20.20;10.48;;;;;;;-144.30;53.58;83273.97;5032193;28;20255;-51
2023/07/23 00:22:20;;;;;;;17.40;8.30;;;;;;;-144.30;53.89;83317.66;5032296;28;20198;-51
2023/07/23 00:24:47;;;;;;;22.63;10.48;;;;;;;-144.30;53.54;83301.78;5032241;28;20198;-52
2023/07/23 00:27:15;;;;;;;25.30;9.95;;;;;;;-144.30;54.47;83297.81;5032220;28;20247;-49
2023/07/23 00:29:42;;;;;;;18.33;8.90;;;;;;;-144.30;54.25;83266.03;5032043;28;20201;-47
2023/07/23 00:32:10;;;;;;;24.05;10.10;;;;;;;-144.30;54.20;83224.28;5031974;28;20201;-49
2023/07/23 00:34:37;;;;;;;19.10;9.27;;;;;;;-144.30;54.14;83293.84;5031852;28;20197;-55
2023/07/23 00:37:04;;;;;;;16.25;9.50;;;;;;;-144.30;54.74;83305.75;5031797;28;20581;-48
2023/07/23 00:39:31;;;;;;;14.02;8.18;;;;;;;-144.30;54.76;83266.03;5031850;28;20205;-50
2023/07/23 00:41:58;;;;;;;20.60;9.25;;;;;;;-144.30;54.53;83262.03;5031951;28;20288;-52
2023/07/23 00:44:27;;;;;;;22.00;9.50;;;;;;;-144.30;54.59;83313.69;5031863;28;20204;-49
2023/07/23 00:46:55;;;;;;;18.33;8.73;;;;;;;-144.30;55.34;83355.41;5031532;28;20217;-52
2023/07/23 00:49:22;;;;;;;16.65;8.57;;;;;;;-144.30;55.66;83532.25;5031875;28;20209;-47
2023/07/23 00:51:49;;;;;;;15.10;9.63;;;;;;;-144.30;55.85;83355.41;5031569;28;20213;-47
2023/07/23 00:54:17;;;;;;;20.05;8.85;;;;;;;-144.30;56.16;83363.38;5031610;28;20206;-47
2023/07/23 00:56:45;;;;;;;17.23;9.00;;;;;;;-144.30;55.68;83333.56;5031783;28;20204;-51
2023/07/23 00:59:12;;;;;;;18.30;9.80;;;;;;;-144.30;56.11;83395.16;5031671;28;20669;-52
2023/07/23 01:01:40;;;;;;;14.20;8.98;;;;;;;-144.30;56.31;83365.34;5031469;28;20588;-52
2023/07/23 01:04:07;;;;;;;20.05;9.55;;;;;;;-144.30;56.64;83395.16;5030978;28;20237;-52
2023/07/23 01:06:38;;;;;;;16.17;8.43;;;;;;;-144.30;56.91;83422.97;5031230;28;20232;-53
2023/07/23 01:09:05;;;;;;;23.33;10.07;;;;;;;-144.30;56.53;83393.16;5031347;28;20213;-48
2023/07/23 01:11:33;;;;;;;22.52;9.80;;;;;;;-144.30;56.46;83411.06;5031347;28;20197;-52
2023/07/23 01:14:02;;;;;;;17.42;8.90;;;;;;;-144.30;56.36;83403.09;5031639;28;20208;-52
2023/07/23 01:16:30;;;;;;;23.10;9.20;;;;;;;-144.30;56.31;83377.28;5031590;28;20453;-47
2023/07/23 01:19:00;;;;;;;21.10;9.50;;;;;;;-144.30;56.19;83387.22;5030902;28;20198;-50
2023/07/23 01:21:28;;;;;;;23.67;9.63;;;;;;;-144.30;56.55;83417.00;5030983;28;20197;-49
2023/07/23 01:23:56;;;;;;;23.00;8.48;;;;;;;-144.30;56.43;83405.09;5031306;28;20205;-51
2023/07/23 01:26:23;;;;;;;24.80;9.32;;;;;;;-144.30;56.33;83377.28;5031120;28;20610;-52
2023/07/23 01:28:50;;;;;;;14.38;8.38;;;;;;;-144.30;56.34;83395.16;5031355;28;20201;-52
2023/07/23 01:31:17;;;;;;;20.20;9.43;;;;;;;-144.30;56.70;83377.28;5030856;28;20205;-49
2023/07/23 01:33:44;;;;;;;15.80;8.77;;;;;;;-144.30;56.79;83407.06;5031260;28;20202;-52
2023/07/23 01:36:12;;;;;;;20.88;10.18;;;;;;;-144.30;56.73;83403.09;5030617;28;20201;-52
2023/07/23 01:38:39;;;;;;;22.85;9.38;;;;;;;-144.30;56.82;83428.94;5030816;28;20193;-48
2023/07/23 01:41:08;;;;;;;24.50;9.35;;;;;;;-144.30;57.31;83424.97;5030785;28;20509;-51
2023/07/23 01:43:35;;;;;;;22.20;9.27;;;;;;;-144.30;57.62;83432.91;5030335;28;20207;-52
2023/07/23 01:46:02;;;;;;;22.38;8.65;;;;;;;-144.30;57.89;83436.88;5030707;28;20575;-51
2023/07/23 01:48:29;;;;;;;27.75;9.25;;;;;;;-144.30;57.82;83462.72;5030495;28;20225;-52
2023/07/23 01:50:56;;;;;;;24.58;8.75;;;;;;;-144.30;57.68;83452.78;5030768;28;20673;-49
2023/07/23 01:53:23;;;;;;;17.58;8.75;;;;;;;-144.30;57.23;83409.06;5030479;28;20201;-49
2023/07/23 01:55:50;;;;;;;16.45;8.88;;;;;;;-144.30;56.92;83430.91;5030395;28;20617;-49
2023/07/23 01:58:19;;;;;;;13.90;8.27;;;;;;;-144.30;56.78;83353.44;5030236;28;20197;-48
2023/07/23 02:00:45;;;;;;;21.35;9.15;;;;;;;-144.30;56.71;83442.84;5030557;28;20684;-53
2023/07/23 02:03:12;;;;;;;17.63;8.45;;;;;;;-144.30;56.98;83397.16;5030299;28;20716;-52
2023/07/23 02:05:39;;;;;;;13.30;8.70;;;;;;;-144.30;57.65;83436.88;5030263;28;20232;-48
2023/07/23 02:08:06;;;;;;;19.40;9.10;;;;;;;-144.30;57.36;83446.81;5030023;28;20221;-48
2023/07/23 02:10:33;;;;;;;22.30;9.23;;;;;;;-144.30;56.63;83391.19;5029937;28;20198;-47
2023/07/23 02:13:00;;;;;;;18.80;8.98;;;;;;;-144.30;56.30;83375.28;5029968;28;20197;-51
2023/07/23 02:15:30;;;;;;;23.75;9.00;;;;;;;-144.30;56.39;83478.59;5030223;28;20197;-47
2023/07/23 02:17:57;;;;;;;20.90;8.82;;;;;;;-144.30;56.33;83373.31;5030284;28;20587;-52
2023/07/23 02:20:23;;;;;;;12.73;8.93;;;;;;;-144.30;56.30;83422.97;5030154;28;20704;-48
2023/07/23 02:22:50;;;;;;;16.38;8.80;;;;;;;-144.30;55.84;83456.75;5029877;28;20207;-48
2023/07/23 02:25:17;;;;;;;20.42;8.75;;;;;;;-144.30;56.51;83448.81;5029791;28;20201;-49
2023/07/23 02:27:44;;;;;;;19.25;7.93;;;;;;;-144.30;56.14;83417.00;5029972;28;20224;-48
2023/07/23 02:30:12;;;;;;;25.65;8.85;;;;;;;-144.30;55.58;83440.84;5029845;28;20689;-53
2023/07/23 02:32:40;;;;;;;15.48;8.40;;;;;;;-144.30;55.07;83401.13;5029880;28;20201;-52
2023/07/23 02:35:08;;;;;;;20.70;8.80;;;;;;;-144.30;54.90;83419.00;5029710;28;20211;-52
2023/07/23 02:37:35;;;;;;;20.23;8.73;;;;;;;-144.30;54.76;83444.81;5029624;28;20199;-52
2023/07/23 02:40:03;;;;;;;17.10;8.80;;;;;;;-144.30;54.90;83379.25;5029663;28;20760;-52
2023/07/23 02:42:30;;;;;;;20.83;9.18;;;;;;;-144.30;55.54;83460.72;5029616;28;20198;-52
2023/07/23 02:44:57;;;;;;;13.77;9.07;;;;;;;-144.30;55.73;83482.56;5029765;28;20201;-51
2023/07/23 02:47:24;;;;;;;22.10;8.90;;;;;;;-144.30;55.88;83830.28;5029722;28;20615;-48
2023/07/23 02:49:52;;;;;;;18.90;8.45;;;;;;;-144.30;55.30;83480.59;5029324;28;20573;-49
2023/07/23 02:52:19;;;;;;;15.50;8.18;;;;;;;-144.30;55.37;83466.69;5029494;28;20205;-48
2023/07/23 02:54:46;;;;;;;12.15;8.55;;;;;;;-144.30;54.99;83508.41;5029236;28;20201;-49
2023/07/23 02:57:13;;;;;;;20.35;8.43;;;;;;;-144.30;55.10;83456.75;5028377;28;20198;-52
2023/07/23 02:59:39;;;;;;;17.80;9.15;;;;;;;-144.30;54.87;83470.66;5029180;28;20208;-52
2023/07/23 03:02:06;;;;;;;18.98;8.48;;;;;;;-144.30;54.39;83450.78;5029219;28;20201;-48
2023/07/23 03:04:33;;;;;;;17.77;8.60;;;;;;;-144.30;54.69;83472.66;5028982;28;20243;-52
2023/07/23 03:07:02;;;;;;;17.70;8.43;;;;;;;-144.30;55.19;83444.81;5029232;28;20201;-48
2023/07/23 03:09:29;;;;;;;20.40;9.48;;;;;;;-144.30;55.25;83397.16;5029043;28;20202;-48
2023/07/23 03:11:55;;;;;;;18.52;8.50;;;;;;;-144.30;55.33;83480.59;5029045;28;20201;-51
2023/07/23 03:14:22;;;;;;;17.35;9.00;;;;;;;-144.30;55.51;83500.47;5029107;28;20198;-49
2023/07/23 03:16:49;;;;;;;18.08;8.65;;;;;;;-144.30;55.15;83450.78;5029163;28;20681;-48
2023/07/23 03:19:16;;;;;;;25.88;9.70;;;;;;;-144.30;54.98;83478.59;5029142;28;20564;-48
2023/07/23 03:21:43;;;;;;;18.27;9.18;;;;;;;-144.30;54.66;83448.81;5028884;28;20229;-52
2023/07/23 03:24:12;;;;;;;18.38;8.98;;;;;;;-144.30;54.39;83436.88;5029233;28;20669;-52
2023/07/23 03:26:38;;;;;;;21.77;9.70;;;;;;;-144.30;53.24;83436.88;5029313;28;20696;-51
2023/07/23 03:29:05;;;;;;;20.70;9.80;;;;;;;-144.30;52.77;83440.84;5029146;28;20257;-51
2023/07/23 03:31:32;;;;;;;21.00;9.15;;;;;;;-144.30;52.92;83444.81;5029061;28;20292;-52
2023/07/23 03:33:59;;;;;;;17.92;8.48;;;;;;;-144.30;53.33;83444.81;5028915;28;20201;-52
2023/07/23 03:36:27;;;;;;;21.38;8.77;;;;;;;-144.30;53.36;83450.78;5028914;28;20204;-49
2023/07/23 03:38:54;;;;;;;17.55;9.30;;;;;;;-144.30;53.39;83411.06;5029175;28;20228;-51
2023/07/23 03:41:22;;;;;;;18.98;10.15;;;;;;;-144.30;54.00;83456.75;5029159;28;20193;-53
2023/07/23 03:43:49;;;;;;;27.40;9.77;;;;;;;-144.30;53.85;83454.75;5029376;28;20714;-49
2023/07/23 03:46:16;;;;;;;22.27;10.20;;;;;;;-144.30;54.13;83452.78;5028896;28;20198;-49
2023/07/23 03:48:43;;;;;;;26.90;9.93;;;;;;;-144.30;54.49;83470.66;5028642;28;20702;-48
2023/07/23 03:51:14;;;;;;;22.67;10.45;;;;;;;-144.30;54.75;83409.06;5029010;28;20233;-50
2023/07/23 03:53:41;;;;;;;25.65;9.70;;;;;;;-144.30;54.01;83401.13;5028684;28;20208;-51
2023/07/23 03:56:08;;;;;;;25.17;9.73;;;;;;;-144.30;53.56;83379.25;5028307;28;20199;-52
2023/07/23 03:58:36;;;;;;;34.15;10.43;;;;;;;-144.30;52.90;83333.56;5028838;28;20789;-49
2023/07/23 04:01:03;;;;;;;29.83;11.02;;;;;;;-144.30;51.60;83216.34;5028764;28;20193;-49
2023/07/23 04:03:30;;;;;;;15.45;9.32;;;;;;;-144.30;49.68;83103.13;5022333;28;20240;-48
2023/07/23 04:05:57;;;;;;;28.83;9.52;;;;;;;-144.30;47.75;82952.13;5015780;28;20703;-52
2023/07/23 04:08:24;;;;;;;19.60;9.73;;;;;;;-144.30;45.57;82856.78;5021411;28;20222;-49
2023/07/23 04:10:55;;;;;;;16.05;9.43;;;;;;;-144.30;43.87;82662.09;5022577;28;20189;-49
2023/07/23 04:13:22;;;;;;;20.73;8.98;;;;;;;-144.30;42.19;82519.09;5022177;28;20624;-47
2023/07/23 04:15:50;;;;;;;19.08;9.30;;;;;;;-144.30;40.54;82340.34;5020339;28;20194;-47
2023/07/23 04:18:17;;;;;;;14.10;8.75;;;;;;;-144.30;39.40;82105.97;5022125;28;20603;-52
2023/07/23 04:20:44;;;;;;;12.07;8.70;;;;;;;-144.30;38.27;82062.28;5022067;28;20198;-52
2023/07/23 04:23:11;;;;;;;19.20;8.32;;;;;;;-144.30;38.05;81913.34;5023176;28;20190;-52
2023/07/23 04:25:38;;;;;;;22.63;9.52;;;;;;;-144.30;37.72;81831.91;5021845;28;20200;-52
2023/07/23 04:28:05;;;;;;;16.83;8.27;;;;;;;-144.30;36.22;81617.44;5021857;28;20336;-49
2023/07/23 04:30:33;;;;;;;17.05;8.65;;;;;;;-144.30;35.58;81474.47;5019891;28;20193;-52
2023/07/23 04:33:01;;;;;;;16.02;7.82;;;;;;;-144.30;34.25;81335.47;5018844;28;20685;-52
2023/07/23 04:35:28;;;;;;;18.75;7.75;;;;;;;-144.30;33.20;81355.34;5017635;28;20232;-52
2023/07/23 04:37:55;;;;;;;16.40;7.85;;;;;;;-144.30;32.17;81117.06;5011852;28;20876;-52
2023/07/23 04:40:22;;;;;;;24.88;8.15;;;;;;;-144.30;31.57;81176.63;5022915;28;20256;-52
2023/07/23 04:42:49;;;;;;;13.73;7.07;;;;;;;-144.30;31.59;81252.09;5019970;28;20592;-52
2023/07/23 04:45:16;;;;;;;17.50;6.72;;;;;;;-144.30;32.21;81401.00;5009966;28;20243;-52
2023/07/23 04:47:43;;;;;;;22.45;7.60;;;;;;;-144.30;32.05;81355.34;5018391;28;20217;-52
2023/07/23 04:50:11;;;;;;;19.95;7.40;;;;;;;-144.30;31.99;81299.72;5015867;28;20197;-49
2023/07/23 04:52:38;;;;;;;18.67;7.70;;;;;;;-144.30;31.59;81291.78;5026364;28;20680;-48
2023/07/23 04:55:07;;;;;;;23.20;6.90;;;;;;;-144.30;31.61;81226.28;5031730;28;20196;-48
2023/07/23 04:57:34;;;;;;;23.05;6.43;;;;;;;-144.30;31.78;81192.50;5031477;28;20200;-52
2023/07/23 05:00:05;;;;;;;19.08;8.27;;;;;;;-144.30;31.47;81043.59;5031484;28;20207;-52
2023/07/23 05:02:32;;;;;;;22.45;7.03;;;;;;;-144.30;31.49;81196.50;5031630;28;20216;-51
2023/07/23 05:04:59;;;;;;;11.27;6.15;;;;;;;-144.30;31.27;81055.50;5031224;28;20330;-51
2023/07/23 05:07:27;;;;;;;13.40;6.05;;;;;;;-144.30;31.08;81021.75;5025403;28;20276;-48
2023/07/23 05:09:54;;;;;;;10.93;5.85;;;;;;;-144.30;30.80;81105.16;5020409;28;20592;-49
2023/07/23 05:12:21;;;;;;;15.80;6.68;;;;;;;-144.30;30.65;80936.41;5019100;28;20573;-48
2023/07/23 05:14:48;;;;;;;13.95;6.30;;;;;;;-144.30;30.93;81001.91;5011302;28;20571;-48
2023/07/23 05:17:15;;;;;;;21.13;6.88;;;;;;;-144.30;31.32;81073.38;5011351;28;20197;-51
2023/07/23 05:19:42;;;;;;;18.33;6.70;;;;;;;-144.30;30.74;80970.16;5012997;28;20564;-52
2023/07/23 05:22:09;;;;;;;16.73;6.65;;;;;;;-144.30;30.55;80827.19;5019831;28;20206;-48
2023/07/23 05:24:37;;;;;;;15.63;6.53;;;;;;;-144.30;29.62;80503.59;5019740;28;20201;-49
2023/07/23 05:27:06;;;;;;;14.10;5.97;;;;;;;-144.30;28.91;80150.28;5030985;28;20207;-48
2023/07/23 05:29:32;;;;;;;18.13;6.88;;;;;;;-144.30;28.91;80156.22;5029765;28;20221;-50
2023/07/23 05:31:59;;;;;;;16.60;6.03;;;;;;;-144.30;28.29;80011.34;5014595;28;20716;-49
2023/07/23 05:34:26;;;;;;;16.25;5.47;;;;;;;-144.30;27.98;79856.53;5010968;28;20202;-50
2023/07/23 05:36:53;;;;;;;15.88;7.30;;;;;;;-144.30;27.41;79455.63;5013877;28;20280;-49
2023/07/23 05:39:20;;;;;;;16.95;6.63;;;;;;;-144.30;27.53;79683.84;5026203;28;20195;-51
2023/07/23 05:41:48;;;;;;;18.17;6.50;;;;;;;-144.30;27.64;79640.19;5020022;28;20584;-48
2023/07/23 05:44:17;;;;;;;11.00;5.80;;;;;;;-144.30;27.43;79664.00;5019517;28;20285;-49
2023/07/23 05:46:44;;;;;;;21.02;7.28;;;;;;;-144.30;27.77;79640.19;5017360;28;20260;-52
2023/07/23 05:49:11;;;;;;;15.48;6.95;;;;;;;-144.30;27.61;79600.50;5025875;28;20224;-49
2023/07/23 05:51:38;;;;;;;16.58;6.75;;;;;;;-144.30;27.38;79558.81;5019435;28;20201;-52
2023/07/23 05:54:05;;;;;;;22.05;6.85;;;;;;;-144.30;27.33;79429.81;5019153;28;20201;-52
2023/07/23 05:56:32;;;;;;;11.30;6.18;;;;;;;-144.30;27.32;79413.94;5021741;28;20203;-50
2023/07/23 05:59:01;;;;;;;15.95;6.88;;;;;;;-144.30;27.24;79308.78;5014741;28;20300;-49
2023/07/23 06:01:27;;;;;;;14.43;6.57;;;;;;;-144.30;27.57;79417.91;5010519;28;20207;-48
2023/07/23 06:03:54;;;;;;;12.25;6.35;;;;;;;-144.30;27.25;79290.91;5010405;28;20740;-48
2023/07/23 06:06:23;;;;;;;11.90;5.68;;;;;;;-144.30;27.20;79390.13;5010324;28;20819;-48
2023/07/23 06:08:50;;;;;;;16.13;6.13;;;;;;;-144.30;27.45;79552.88;5010260;28;20227;-48
2023/07/23 06:11:17;;;;;;;25.10;7.05;;;;;;;-144.30;27.58;79453.66;5017653;28;20783;-47
2023/07/23 06:13:44;;;;;;;16.73;6.30;;;;;;;-144.30;27.23;79382.19;5023139;28;20203;-53
2023/07/23 06:16:12;;;;;;;16.95;6.10;;;;;;;-144.30;27.45;79552.88;5020536;28;20200;-53
2023/07/23 06:18:39;;;;;;;18.77;7.22;;;;;;;-144.30;27.90;79630.28;5022806;28;20193;-50
2023/07/23 06:21:06;;;;;;;22.17;7.47;;;;;;;-144.30;28.07;79626.31;5017644;28;20193;-51
2023/07/23 06:23:34;;;;;;;17.10;7.90;;;;;;;-144.30;28.03;79578.66;5019301;28;20203;-52
2023/07/23 06:26:01;;;;;;;17.35;7.25;;;;;;;-144.30;27.50;79104.38;5019833;28;20189;-53
2023/07/23 06:28:28;;;;;;;16.50;6.38;;;;;;;-144.30;27.53;79413.94;5029546;28;20221;-49
2023/07/23 06:30:55;;;;;;;19.27;6.55;;;;;;;-144.30;27.70;79402.03;5029331;28;20200;-50
2023/07/23 06:33:24;;;;;;;17.60;7.03;;;;;;;-144.30;27.54;79390.13;5026990;28;20311;-49
2023/07/23 06:35:51;;;;;;;14.73;8.85;;;;;;;-144.30;27.37;79429.81;5029232;28;20665;-51
2023/07/23 06:38:18;;;;;;;14.65;6.70;;;;;;;-144.30;27.35;79318.69;5029462;28;20284;-52
2023/07/23 06:40:48;;;;;;;16.30;7.03;;;;;;;-144.30;27.21;79261.16;5025710;28;20203;-53
2023/07/23 06:43:16;;;;;;;19.85;6.80;;;;;;;-144.30;27.07;79223.44;5029945;28;20197;-52
2023/07/23 06:45:44;;;;;;;20.90;7.38;;;;;;;-144.30;26.85;79249.25;5030154;28;20645;-52
2023/07/23 06:48:12;;;;;;;18.27;7.45;;;;;;;-144.30;27.02;79282.97;5030060;28;20284;-52
2023/07/23 06:50:40;;;;;;;8.75;6.25;;;;;;;-144.30;27.04;79263.13;5030223;28;20287;-52
2023/07/23 06:53:07;;;;;;;19.58;9.10;;;;;;;-144.30;26.94;79239.31;5030005;28;20199;-52
2023/07/23 06:55:56;;;;;;;19.17;6.78;;;;;;;-144.30;26.81;79332.59;5030024;28;20203;-49
2023/07/23 06:58:23;;;;;;;14.40;8.15;;;;;;;-144.30;27.23;79540.97;5027802;28;20255;-53
2023/07/23 07:00:50;;;;;;;18.30;7.38;;;;;;;-144.30;27.58;79620.34;5029310;28;20211;-48
2023/07/23 07:03:17;;;;;;;14.52;6.78;;;;;;;-144.30;27.52;79727.50;5018164;28;20231;-49
2023/07/23 07:05:45;;;;;;;16.90;6.28;;;;;;;-144.30;27.69;79719.56;5029803;28;20200;-52
2023/07/23 07:08:12;;;;;;;15.15;8.15;;;;;;;-144.30;27.96;79808.88;5029773;28;20193;-52
2023/07/23 07:10:39;;;;;;;19.20;7.72;;;;;;;-144.30;28.08;79896.22;5029628;28;20203;-52
2023/07/23 07:13:06;;;;;;;15.02;6.80;;;;;;;-144.30;28.28;80021.25;5029745;28;20714;-52
2023/07/23 07:15:33;;;;;;;12.30;6.93;;;;;;;-144.30;27.69;79985.53;5029722;28;20224;-53
2023/07/23 07:18:00;;;;;;;14.32;7.57;;;;;;;-144.30;27.76;79906.13;5029365;28;20201;-52
2023/07/23 07:20:27;;;;;;;11.30;7.07;;;;;;;-144.30;27.26;79878.34;5029837;28;20193;-53
2023/07/23 07:22:55;;;;;;;13.10;6.88;;;;;;;-144.30;27.35;79846.59;5029602;28;20197;-48
2023/07/23 07:25:22;;;;;;;17.77;7.38;;;;;;;-144.30;27.23;79818.81;5029660;28;20287;-52
2023/07/23 07:27:49;;;;;;;15.05;7.25;;;;;;;-144.30;26.65;79735.47;5029391;28;20591;-52
2023/07/23 07:30:16;;;;;;;7.22;6.32;;;;;;;-144.30;27.16;79866.44;5029930;28;20596;-52
2023/07/23 07:32:43;;;;;;;9.52;7.47;;;;;;;-144.30;27.23;79961.72;5029571;28;20197;-52
2023/07/23 07:35:10;;;;;;;9.40;6.95;;;;;;;-144.30;26.98;79914.09;5029536;28;20200;-53
2023/07/23 07:37:37;;;;;;;15.13;7.32;;;;;;;-144.30;26.63;79731.50;5029484;28;20201;-53
2023/07/23 07:40:09;;;;;;;11.65;7.15;;;;;;;-144.30;26.23;79904.16;5029487;28;20677;-52
2023/07/23 07:42:36;;;;;;;8.48;6.18;;;;;;;-144.30;26.23;79933.94;5028631;28;20197;-52
2023/07/23 07:45:03;;;;;;;10.75;6.65;;;;;;;-144.30;26.08;79830.72;5045883;28;20196;-52
2023/07/23 07:47:30;;;;;;;7.45;6.47;;;;;;;-144.30;25.41;79667.97;5053162;28;20200;-53
2023/07/23 07:49:57;;;;;;;15.82;6.85;;;;;;;-144.30;25.66;79501.28;5053156;28;20226;-52
2023/07/23 07:52:23;;;;;;;8.75;7.18;;;;;;;-144.30;25.39;79362.34;5053329;28;20552;-52
2023/07/23 07:54:50;;;;;;;16.02;6.85;;;;;;;-144.30;25.34;79298.84;5052925;28;20200;-52
2023/07/23 07:57:19;;;;;;;16.27;6.63;;;;;;;-144.30;25.03;79358.38;5053307;28;20196;-52
2023/07/23 07:59:47;;;;;;;8.35;6.38;;;;;;;-144.30;25.25;79394.09;5053327;28;20192;-52
2023/07/23 08:02:14;;;;;;;9.18;6.40;;;;;;;-144.30;24.77;79173.84;5053113;28;20287;-52
2023/07/23 08:04:42;;;;;;;8.70;6.55;;;;;;;-144.30;24.78;79044.84;5052705;28;20227;-53
2023/07/23 08:07:09;;;;;;;10.27;6.30;;;;;;;-144.30;24.08;78759.13;5052653;28;20196;-52
2023/07/23 08:09:38;;;;;;;16.15;6.82;;;;;;;-144.30;23.76;78598.44;5052674;28;20226;-52
2023/07/23 08:12:08;;;;;;;9.82;6.00;;;;;;;-144.30;23.21;78644.06;5053009;28;20196;-53
2023/07/23 08:14:38;;;;;;;13.82;6.15;;;;;;;-144.30;22.99;78991.28;5052999;28;20577;-53
2023/07/23 08:17:06;;;;;;;20.92;6.22;;;;;;;-144.30;23.17;79352.44;5052957;28;20672;-50
2023/07/23 08:19:33;;;;;;;9.70;5.65;;;;;;;-144.30;23.34;79388.16;5050488;28;20188;-49
2023/07/23 08:22:01;;;;;;;13.88;6.53;;;;;;;-144.30;23.14;79320.69;5032563;28;20289;-48
2023/07/23 08:24:28;;;;;;;7.80;6.13;;;;;;;-144.30;23.21;79286.94;5032765;28;20196;-50
2023/07/23 08:26:58;;;;;;;9.55;6.38;;;;;;;-144.30;23.53;79380.22;5032323;28;20283;-49
2023/07/23 08:29:29;;;;;;;13.25;6.60;;;;;;;-144.30;23.21;79366.31;5032581;28;20712;-49
2023/07/23 08:31:58;;;;;;;12.88;7.22;;;;;;;-144.30;23.21;79154.00;5032461;28;20201;-49
2023/07/23 08:34:26;;;;;;;10.23;7.15;;;;;;;-144.30;23.33;79193.69;5032311;28;20226;-50
2023/07/23 08:36:54;;;;;;;7.07;6.38;;;;;;;-144.30;23.21;79288.94;5049307;28;20643;-48
2023/07/23 08:39:21;;;;;;;12.00;7.53;;;;;;;-144.30;23.76;79358.38;5042605;28;20200;-47
2023/07/23 08:42:13;;;;;;;15.57;6.32;;;;;;;-144.30;23.09;79572.72;5025722;28;20193;-47
2023/07/23 08:45:17;;;;;;;11.68;6.60;;;;;;;-144.30;23.72;79622.34;5022666;28;20216;-49
2023/07/23 08:47:48;;;;;;;13.82;7.25;;;;;;;-144.30;23.53;79947.81;5021095;28;20669;-52
2023/07/23 08:50:15;;;;;;;10.18;6.88;;;;;;;-144.30;23.72;80053.03;5020903;28;20742;-52
2023/07/23 08:52:43;;;;;;;9.52;6.75;;;;;;;-144.30;23.38;80053.03;5014367;28;20900;-51
2023/07/23 08:55:11;;;;;;;12.57;6.90;;;;;;;-144.30;23.74;80209.81;5010766;28;20823;-53
2023/07/23 08:57:39;;;;;;;9.32;6.50;;;;;;;-144.30;23.47;80217.75;5012629;28;20197;-53
2023/07/23 09:00:09;;;;;;;11.43;6.15;;;;;;;-144.30;23.44;80215.78;5012247;28;20288;-53
2023/07/23 09:02:40;;;;;;;13.85;7.18;;;;;;;-144.30;23.67;80279.28;5011956;28;20201;-52
2023/07/23 09:05:09;;;;;;;7.57;6.82;;;;;;;-144.30;23.74;80295.19;5011976;28;20261;-52
2023/07/23 09:07:36;;;;;;;10.07;7.20;;;;;;;-144.30;23.74;80267.38;5011611;28;20585;-52
2023/07/23 09:10:03;;;;;;;11.80;7.57;;;;;;;-144.30;23.60;80263.41;5022929;28;20219;-52
2023/07/23 09:12:30;;;;;;;9.30;7.55;;;;;;;-144.30;23.91;80239.59;5031034;28;20220;-52
2023/07/23 09:15:04;;;;;;;12.15;7.35;;;;;;;-144.30;24.16;80356.72;5030518;28;20219;-51
2023/07/23 09:17:31;;;;;;;8.23;7.13;;;;;;;-144.30;24.08;80416.28;5023673;28;20218;-51
2023/07/23 09:19:58;;;;;;;9.23;7.32;;;;;;;-144.30;23.99;80434.13;5027413;28;20188;-52
2023/07/23 09:22:31;;;;;;;9.90;7.00;;;;;;;-144.30;24.06;80634.63;5026437;28;20288;-52
2023/07/23 09:25:00;;;;;;;26.42;7.90;;;;;;;-144.30;24.42;80602.88;5010992;28;20197;-53
2023/07/23 09:27:36;;;;;;;9.27;7.25;;;;;;;-144.30;24.25;80465.91;5022795;28;20200;-48
2023/07/23 09:30:03;;;;;;;12.35;7.70;;;;;;;-144.30;24.15;80438.09;5023882;28;20772;-52
2023/07/23 09:32:30;;;;;;;9.18;7.63;;;;;;;-144.30;24.07;80420.22;5027283;28;20656;-53
2023/07/23 09:34:59;;;;;;;12.35;8.02;;;;;;;-144.30;23.77;80358.69;5024766;28;20240;-53
2023/07/23 09:37:29;;;;;;;7.97;7.20;;;;;;;-144.30;23.47;80440.09;5030236;28;20203;-53
2023/07/23 09:39:56;;;;;;;11.23;7.80;;;;;;;-144.30;23.44;80581.03;5030481;28;20665;-53
2023/07/23 09:42:24;;;;;;;11.32;8.45;;;;;;;-144.30;23.48;80634.63;5030355;28;20286;-52
2023/07/23 09:44:52;;;;;;;15.55;7.65;;;;;;;-144.30;23.08;80559.19;5029683;28;20596;-52
2023/07/23 09:47:24;;;;;;;8.88;7.47;;;;;;;-144.30;22.90;80767.63;5030172;28;20220;-49
2023/07/23 09:49:52;;;;;;;16.63;8.38;;;;;;;-144.30;23.03;80501.63;5030383;28;20705;-50
2023/07/23 09:52:23;;;;;;;11.40;8.50;;;;;;;-144.30;23.24;80412.28;5030423;28;20200;-49
2023/07/23 09:54:53;;;;;;;11.13;9.20;;;;;;;-144.30;23.26;80442.06;5027257;28;20197;-48
2023/07/23 09:57:21;;;;;;;15.30;10.13;;;;;;;-144.30;22.91;80477.81;5021146;28;20265;-50
2023/07/23 09:59:49;;;;;;;17.98;9.88;;;;;;;-144.30;22.79;80319.00;5017355;28;20228;-51
2023/07/23 10:02:16;;;;;;;10.90;9.43;;;;;;;-144.30;22.79;80402.38;5008650;28;20200;-50
2023/07/23 10:04:44;;;;;;;14.88;9.00;;;;;;;-144.30;23.02;80398.41;5001588;28;20855;-50
2023/07/23 10:07:11;;;;;;;20.33;9.00;;;;;;;-144.30;22.94;80517.50;4997940;28;20208;-49
2023/07/23 10:09:39;;;;;;;15.18;9.43;;;;;;;-144.30;23.24;80577.06;5000101;28;20214;-49
2023/07/23 10:12:08;;;;;;;16.63;9.82;;;;;;;-144.30;23.20;80604.84;4999042;28;20670;-50
2023/07/23 10:14:35;;;;;;;17.55;11.07;;;;;;;-144.30;22.45;80553.25;4999404;28;20197;-50
2023/07/23 10:17:03;;;;;;;26.08;10.40;;;;;;;-144.30;22.96;80624.72;4999956;28;20204;-50
2023/07/23 10:19:30;;;;;;;17.52;9.20;;;;;;;-144.30;23.21;80678.31;4998793;28;20197;-50
2023/07/23 10:21:57;;;;;;;16.25;9.32;;;;;;;-144.30;23.17;80656.47;5001971;28;20220;-50
2023/07/23 10:24:37;;;;;;;47.17;11.15;;;;;;;-144.30;23.30;80896.69;5009951;28;20624;-50
2023/07/23 10:27:11;;;;;;;21.50;9.68;;;;;;;-144.30;23.45;80910.59;5010230;28;20292;-50
2023/07/23 10:29:38;;;;;;;17.33;9.45;;;;;;;-144.30;23.38;80886.75;5009162;28;20263;-50
2023/07/23 10:32:23;;;;;;;11.60;9.50;;;;;;;-144.30;23.19;80898.66;5009309;28;20197;-49
2023/07/23 10:34:50;;;;;;;19.83;9.60;;;;;;;-144.30;23.57;80878.81;5009829;28;20725;-49
2023/07/23 10:37:18;;;;;;;10.88;9.25;;;;;;;-144.30;23.23;80926.47;5009465;28;20201;-52
2023/07/23 10:39:47;;;;;;;13.38;9.70;;;;;;;-144.30;23.40;80984.03;5009860;28;20201;-52
2023/07/23 10:42:41;;;;;;;16.77;10.82;;;;;;;-144.30;23.16;81117.06;5009689;28;20296;-52
2023/07/23 10:45:28;;;;;;;25.17;11.48;;;;;;;-144.30;22.97;81166.69;5009158;28;20244;-50
2023/07/23 10:47:57;;;;;;;15.98;11.38;;;;;;;-144.30;23.25;81182.59;5009504;28;20645;-50
2023/07/23 10:50:26;;;;;;;16.30;11.43;;;;;;;-144.30;23.02;81194.50;5009577;28;20236;-50
2023/07/23 10:52:59;;;;;;;18.90;11.23;;;;;;;-144.30;23.36;81184.56;5008635;28;20228;-53
2023/07/23 10:55:33;;;;;;;21.95;11.57;;;;;;;-144.30;23.04;81291.78;5007977;28;20189;-52
2023/07/23 10:58:09;;;;;;;15.45;10.82;;;;;;;-144.30;23.28;81291.78;5008186;28;20202;-53
2023/07/23 11:00:42;;;;;;;24.00;12.10;;;;;;;-144.30;23.21;81236.19;5006443;28;20554;-53
2023/07/23 11:03:11;;;;;;;17.85;11.68;;;;;;;-144.30;23.14;81285.84;5002665;28;20197;-53
2023/07/23 11:05:40;;;;;;;17.50;12.07;;;;;;;-144.30;23.44;81222.28;5017845;28;20691;-53
2023/07/23 11:08:18;;;;;;;16.40;11.75;;;;;;;-144.30;23.50;81267.97;5018765;28;20189;-52
2023/07/23 11:10:48;;;;;;;13.77;11.68;;;;;;;-144.30;23.26;81345.41;5017555;28;20233;-50
2023/07/23 11:13:16;;;;;;;15.15;11.52;;;;;;;-144.30;23.24;81391.06;5017709;28;20260;-49